Time;durP1;ratioP1;P1;durP2;ratioP2;P2;SDS_P1;SDS_P2;PMS_P1;PMS_P2;Temp;Humidity;BMP_temperature;BMP_pressure;BME280_temperature;BME280_humidity;BME280_pressure;Samples;Min_cycle;Max_cycle;Signal;HPM_P1;HPM_P2
2022/10/24 00:00:11;;;;;;;4.47;1.00;;;;;;;12.94;100.00;95865.50;1031059;28;20710;-72
2022/10/24 00:00:42;;;;;;;4.72;1.23;;;;;;;12.94;100.00;95852.31;1031094;28;20584;-71
2022/10/24 00:01:15;;;;;;;5.65;0.85;;;;;;;12.92;100.00;95854.44;1030804;28;20022;-73
2022/10/24 00:01:45;;;;;;;2.80;0.93;;;;;;;13.01;100.00;95867.00;1026887;28;20025;-72
2022/10/24 00:02:16;;;;;;;6.93;1.20;;;;;;;13.02;100.00;95853.56;1026878;28;20038;-72
2022/10/24 00:02:46;;;;;;;5.97;1.40;;;;;;;13.03;100.00;95864.91;1027157;28;20046;-72
2022/10/24 00:03:16;;;;;;;7.45;0.95;;;;;;;13.05;100.00;95858.28;1034178;28;20427;-72
2022/10/24 00:03:48;;;;;;;2.05;1.02;;;;;;;13.00;100.00;95874.13;1030757;28;20019;-71
2022/10/24 00:04:18;;;;;;;3.70;1.20;;;;;;;13.01;100.00;95888.06;1026834;28;20030;-71
2022/10/24 00:04:48;;;;;;;7.93;1.30;;;;;;;12.97;100.00;95880.72;1026819;28;20381;-73
2022/10/24 00:05:19;;;;;;;5.20;1.08;;;;;;;12.94;100.00;95878.66;1031112;28;20250;-72
2022/10/24 00:05:49;;;;;;;6.20;1.58;;;;;;;12.91;100.00;95855.50;1031019;28;20058;-72
2022/10/24 00:06:20;;;;;;;6.75;0.80;;;;;;;12.94;100.00;95860.22;1034496;28;20377;-73
2022/10/24 00:06:50;;;;;;;2.20;0.90;;;;;;;12.97;100.00;95866.78;1030857;28;20026;-73
2022/10/24 00:07:21;;;;;;;5.07;1.23;;;;;;;12.96;100.00;95857.31;1030995;28;20475;-73
2022/10/24 00:07:51;;;;;;;5.88;1.27;;;;;;;12.95;100.00;95853.09;1030684;28;20389;-73
2022/10/24 00:08:22;;;;;;;7.22;1.15;;;;;;;12.91;100.00;95862.59;1034763;28;20018;-73
2022/10/24 00:08:52;;;;;;;3.97;1.33;;;;;;;12.95;100.00;95871.53;1026851;28;20026;-73
2022/10/24 00:09:22;;;;;;;5.68;0.98;;;;;;;13.01;100.00;95882.81;1026941;28;20031;-73
2022/10/24 00:09:53;;;;;;;6.22;1.27;;;;;;;12.95;100.00;95885.50;1019975;28;20091;-72
2022/10/24 00:10:23;;;;;;;5.13;1.05;;;;;;;12.95;100.00;95897.88;1026894;28;20029;-74
2022/10/24 00:10:54;;;;;;;3.50;1.10;;;;;;;12.94;100.00;95910.28;1023052;28;20606;-73
2022/10/24 00:11:26;;;;;;;3.50;1.45;;;;;;;12.89;100.00;95907.66;1022877;28;20036;-71
2022/10/24 00:11:56;;;;;;;6.93;1.17;;;;;;;12.95;100.00;95919.72;1026709;28;20226;-71
2022/10/24 00:12:27;;;;;;;2.03;0.75;;;;;;;12.95;100.00;95927.63;1026116;28;20126;-73
2022/10/24 00:12:57;;;;;;;2.05;1.00;;;;;;;12.95;100.00;95917.09;1022926;29;20046;-71
2022/10/24 00:13:27;;;;;;;5.18;1.33;;;;;;;12.91;100.00;95921.34;1026758;28;20019;-72
2022/10/24 00:13:58;;;;;;;2.60;0.90;;;;;;;12.86;100.00;95913.47;1026794;28;20050;-72
2022/10/24 00:14:29;;;;;;;4.28;1.13;;;;;;;12.93;100.00;95921.84;1030980;28;20560;-72
2022/10/24 00:14:59;;;;;;;4.30;1.00;;;;;;;12.89;100.00;95912.91;1024294;28;20023;-73
2022/10/24 00:15:29;;;;;;;3.75;1.08;;;;;;;12.88;100.00;95916.63;1030808;28;20026;-72
2022/10/24 00:16:00;;;;;;;9.32;1.15;;;;;;;12.90;100.00;95917.13;1026754;28;20658;-73
2022/10/24 00:16:30;;;;;;;4.45;1.13;;;;;;;12.89;100.00;95912.13;1026679;28;20014;-72
2022/10/24 00:17:01;;;;;;;7.53;1.95;;;;;;;12.88;100.00;95910.56;1026881;28;20038;-72
2022/10/24 00:17:32;;;;;;;5.32;1.08;;;;;;;12.88;100.00;95911.34;1030802;28;20384;-73
2022/10/24 00:18:02;;;;;;;3.78;0.98;;;;;;;12.80;100.00;95896.09;1034699;28;20018;-72
2022/10/24 00:18:33;;;;;;;8.48;1.40;;;;;;;12.79;100.00;95884.00;1026958;28;20049;-73
2022/10/24 00:19:03;;;;;;;4.07;1.30;;;;;;;12.84;100.00;95886.59;1031060;28;20106;-72
2022/10/24 00:19:34;;;;;;;1.95;0.95;;;;;;;12.88;100.00;95889.50;1035069;28;20030;-74
2022/10/24 00:20:05;;;;;;;4.20;1.27;;;;;;;12.81;100.00;95874.00;1034873;28;20410;-73
2022/10/24 00:20:37;;;;;;;5.47;1.02;;;;;;;12.84;100.00;95889.22;1026613;28;20015;-74
2022/10/24 00:21:07;;;;;;;5.00;1.25;;;;;;;12.77;100.00;95874.81;1026876;28;20034;-72
2022/10/24 00:21:38;;;;;;;3.70;1.50;;;;;;;12.82;100.00;95894.00;1022985;28;20564;-72
2022/10/24 00:22:08;;;;;;;4.78;1.15;;;;;;;12.80;100.00;95888.22;1035124;28;20018;-72
2022/10/24 00:22:38;;;;;;;6.65;0.95;;;;;;;12.79;100.00;95870.84;1030190;28;20014;-73
2022/10/24 00:23:09;;;;;;;4.07;1.27;;;;;;;12.83;100.00;95876.34;1030931;28;20026;-71
2022/10/24 00:23:39;;;;;;;6.22;1.20;;;;;;;12.80;100.00;95876.91;1026630;28;20101;-73
2022/10/24 00:24:10;;;;;;;9.05;1.60;;;;;;;12.73;100.00;95871.94;1022686;28;20034;-72
2022/10/24 00:24:40;;;;;;;10.40;1.05;;;;;;;12.78;100.00;95885.06;1026536;28;20019;-72
2022/10/24 00:25:11;;;;;;;2.85;1.02;;;;;;;12.79;100.00;95893.75;1026534;28;20018;-73
2022/10/24 00:25:41;;;;;;;2.58;0.90;;;;;;;12.76;100.00;95883.78;1026962;28;20484;-73
2022/10/24 00:26:11;;;;;;;5.82;1.23;;;;;;;12.77;100.00;95882.69;1030852;28;20076;-73
2022/10/24 00:26:42;;;;;;;2.40;1.00;;;;;;;12.75;100.00;95885.63;1030868;28;20096;-73
2022/10/24 00:27:12;;;;;;;4.88;1.73;;;;;;;12.75;100.00;95883.00;1034963;28;20077;-72
2022/10/24 00:27:43;;;;;;;4.72;1.17;;;;;;;12.76;100.00;95879.28;1039074;28;20022;-73
2022/10/24 00:28:13;;;;;;;3.67;1.17;;;;;;;12.77;100.00;95883.47;1039133;28;20022;-73
2022/10/24 00:28:44;;;;;;;7.55;1.50;;;;;;;12.79;100.00;95880.59;1042825;28;20029;-72
2022/10/24 00:29:14;;;;;;;1.98;1.13;;;;;;;12.79;100.00;95875.31;1038871;28;20029;-71
2022/10/24 00:29:44;;;;;;;3.20;1.27;;;;;;;12.78;100.00;95874.53;1030898;28;20472;-72
2022/10/24 00:30:15;;;;;;;8.43;1.25;;;;;;;12.72;100.00;95859.84;1030756;28;20401;-71
2022/10/24 00:30:50;;;;;;;3.45;1.13;;;;;;;12.78;100.00;95864.00;1026721;28;20023;-72
2022/10/24 00:31:20;;;;;;;5.50;1.27;;;;;;;12.73;100.00;95864.03;1031460;28;20657;-74
2022/10/24 00:31:50;;;;;;;4.13;1.30;;;;;;;12.71;100.00;95860.91;1026773;28;20018;-71
2022/10/24 00:32:21;;;;;;;4.15;1.08;;;;;;;12.75;100.00;95875.09;1022153;28;20015;-71
2022/10/24 00:32:51;;;;;;;3.67;1.25;;;;;;;12.81;100.00;95862.66;1030450;28;20041;-72
2022/10/24 00:33:22;;;;;;;4.43;1.27;;;;;;;12.75;100.00;95861.91;1034645;28;20052;-72
2022/10/24 00:33:52;;;;;;;5.07;1.42;;;;;;;12.82;100.00;95865.03;1034618;28;20014;-73
2022/10/24 00:34:23;;;;;;;3.72;1.25;;;;;;;12.77;100.00;95851.88;1030449;28;20646;-71
2022/10/24 00:34:53;;;;;;;6.18;1.38;;;;;;;12.82;100.00;95865.03;1026430;28;20366;-70
2022/10/24 00:35:24;;;;;;;3.50;1.02;;;;;;;12.80;100.00;95864.50;1026651;28;20735;-72
2022/10/24 00:35:54;;;;;;;3.42;1.20;;;;;;;12.81;100.00;95858.19;1030358;28;20014;-71
2022/10/24 00:36:25;;;;;;;6.45;1.10;;;;;;;12.77;100.00;95849.25;1030748;28;20077;-72
2022/10/24 00:36:55;;;;;;;5.75;1.25;;;;;;;12.80;100.00;95838.19;1034339;28;20115;-73
2022/10/24 00:37:26;;;;;;;4.38;1.15;;;;;;;12.88;100.00;95853.41;1030336;28;20777;-70
2022/10/24 00:37:56;;;;;;;3.97;1.10;;;;;;;12.85;100.00;95851.31;1030786;28;20575;-72
2022/10/24 00:38:27;;;;;;;4.90;1.10;;;;;;;12.87;100.00;95857.09;1039047;28;20473;-74
2022/10/24 00:38:57;;;;;;;4.18;1.08;;;;;;;12.88;100.00;95861.31;1034716;28;20013;-72
2022/10/24 00:39:28;;;;;;;2.45;1.08;;;;;;;12.85;100.00;95853.97;1034780;28;20474;-72
2022/10/24 00:39:59;;;;;;;5.25;1.20;;;;;;;12.83;100.00;95845.53;1034690;28;20006;-71
2022/10/24 00:40:29;;;;;;;5.85;1.20;;;;;;;12.82;100.00;95851.88;1034848;28;20041;-71
2022/10/24 00:40:59;;;;;;;6.45;1.52;;;;;;;12.82;100.00;95849.22;1034712;28;20544;-72
2022/10/24 00:41:37;;;;;;;4.97;1.13;;;;;;;12.77;100.00;95846.63;1031040;28;20041;-73
2022/10/24 00:42:07;;;;;;;2.63;1.00;;;;;;;12.83;100.00;95853.44;1026765;28;20081;-71
2022/10/24 00:42:37;;;;;;;7.78;1.40;;;;;;;12.79;100.00;95852.41;1026813;28;20540;-72
2022/10/24 00:43:20;;;;;;;10.88;1.67;;;;;;;12.73;100.00;95845.59;1026642;28;20416;-73
2022/10/24 00:43:50;;;;;;;4.32;1.13;;;;;;;12.78;100.00;95850.84;1026606;28;20015;-73
2022/10/24 00:44:28;;;;;;;4.82;1.40;;;;;;;12.77;100.00;95859.00;1029438;28;20027;-73
2022/10/24 00:44:59;;;;;;;6.25;1.33;;;;;;;12.82;100.00;95865.03;1034853;28;20086;-72
2022/10/24 00:45:49;;;;;;;4.10;1.00;;;;;;;12.80;100.00;95861.88;1022619;29;20062;-72
2022/10/24 00:46:20;;;;;;;5.40;1.40;;;;;;;12.77;100.00;95862.41;1026187;28;20434;-72
2022/10/24 00:46:53;;;;;;;5.70;1.58;;;;;;;12.79;100.00;95865.56;1018871;29;20016;-72
2022/10/24 00:47:25;;;;;;;6.60;1.50;;;;;;;12.81;100.00;95866.09;1030746;28;20056;-73
2022/10/24 00:47:55;;;;;;;3.33;1.08;;;;;;;12.79;100.00;95865.56;1031753;28;20484;-71
2022/10/24 00:48:26;;;;;;;4.18;1.05;;;;;;;12.79;100.00;95864.78;1027373;28;20011;-72
2022/10/24 00:48:57;;;;;;;6.90;1.42;;;;;;;12.85;100.00;95858.44;1026889;28;20380;-72
2022/10/24 00:50:08;;;;;;;7.45;1.75;;;;;;;12.80;100.00;95859.25;1018655;29;20020;-71
2022/10/24 00:50:38;;;;;;;;;;;;;;;12.85;100.00;95861.06;1028731;28;20408;-72
2022/10/24 00:51:24;;;;;;;8.52;1.30;;;;;;;12.85;100.00;95864.50;1027660;28;19906;-72
2022/10/24 00:51:59;;;;;;;5.90;1.25;;;;;;;12.88;100.00;95871.84;1027658;28;20031;-72
2022/10/24 00:52:36;;;;;;;7.72;1.38;;;;;;;12.89;100.00;95870.00;1025140;28;20050;-72
2022/10/24 00:53:07;;;;;;;5.32;1.58;;;;;;;12.80;100.00;95853.97;1022860;29;20020;-73
2022/10/24 00:53:42;;;;;;;2.28;0.93;;;;;;;12.88;100.00;95873.69;1026632;28;20011;-73
2022/10/24 00:54:12;;;;;;;7.30;1.48;;;;;;;12.83;100.00;95856.06;1030778;28;20020;-72
2022/10/24 00:54:43;;;;;;;6.70;1.02;;;;;;;12.82;100.00;95854.50;1025225;28;20031;-74
2022/10/24 00:55:13;;;;;;;6.15;1.70;;;;;;;12.82;100.00;95851.88;1022678;29;20433;-74
2022/10/24 00:55:45;;;;;;;8.25;1.65;;;;;;;12.83;100.00;95857.91;1026668;28;20018;-74
2022/10/24 00:56:21;;;;;;;3.47;1.20;;;;;;;12.86;100.00;95860.78;1022651;28;20025;-72
2022/10/24 00:57:02;;;;;;;4.68;1.40;;;;;;;12.89;100.00;95848.94;1018925;29;20023;-73
2022/10/24 00:57:38;;;;;;;7.65;1.20;;;;;;;12.86;100.00;95844.22;1022816;29;20013;-72
2022/10/24 00:58:09;;;;;;;3.88;1.30;;;;;;;12.90;100.00;95853.13;1028313;28;20071;-73
2022/10/24 00:58:39;;;;;;;2.65;1.23;;;;;;;12.88;100.00;95857.91;1026986;28;20031;-73
2022/10/24 00:59:10;;;;;;;5.30;1.20;;;;;;;12.88;100.00;95853.41;1026879;28;20019;-73
2022/10/24 00:59:41;;;;;;;2.40;1.27;;;;;;;12.89;100.00;95862.09;1018784;29;20027;-73
2022/10/24 01:00:18;;;;;;;4.93;1.23;;;;;;;12.87;100.00;95849.19;1030827;28;20022;-71
2022/10/24 01:00:49;;;;;;;6.82;1.25;;;;;;;12.90;100.00;95856.53;1034837;28;20085;-73
2022/10/24 01:01:19;;;;;;;6.70;1.40;;;;;;;12.90;100.00;95859.19;1034655;28;20072;-73
2022/10/24 01:01:50;;;;;;;3.67;1.10;;;;;;;12.88;100.00;95848.16;1031399;28;20058;-72
2022/10/24 01:02:20;;;;;;;6.88;1.30;;;;;;;12.88;100.00;95856.03;1030018;28;20047;-73
2022/10/24 01:02:51;;;;;;;6.10;1.77;;;;;;;12.88;100.00;95850.78;1030731;28;20460;-72
2022/10/24 01:03:21;;;;;;;4.47;1.33;;;;;;;12.85;100.00;95853.97;1034660;28;20109;-72
2022/10/24 01:03:52;;;;;;;5.97;1.23;;;;;;;12.81;100.00;95846.84;1022582;29;20448;-73
2022/10/24 01:04:22;;;;;;;7.82;1.33;;;;;;;12.84;100.00;95852.38;1030620;28;20022;-71
2022/10/24 01:04:55;;;;;;;8.13;1.25;;;;;;;12.86;100.00;95846.84;1028973;28;20014;-72
2022/10/24 01:05:27;;;;;;;4.65;1.40;;;;;;;12.88;100.00;95845.50;1031309;28;20026;-74
2022/10/24 01:06:21;;;;;;;4.93;1.55;;;;;;;12.90;100.00;95845.22;1035171;28;20022;-72
2022/10/24 01:07:06;;;;;;;4.72;1.42;;;;;;;12.92;100.00;95837.84;1030438;28;20109;-72
2022/10/24 01:07:51;;;;;;;4.80;1.50;;;;;;;12.90;100.00;95830.19;1027918;28;20126;-72
2022/10/24 01:08:42;;;;;;;6.13;1.45;;;;;;;12.93;100.00;95836.78;1030582;28;20056;-72
2022/10/24 01:09:29;;;;;;;1.73;1.15;;;;;;;12.96;100.00;95833.59;1031320;28;20019;-74
2022/10/24 01:10:21;;;;;;;4.53;1.35;;;;;;;12.93;100.00;95829.66;1036890;28;20018;-72
2022/10/24 01:11:15;;;;;;;4.03;1.05;;;;;;;12.85;100.00;95816.31;1035870;28;20041;-71
2022/10/24 01:12:09;;;;;;;5.55;1.60;;;;;;;12.92;100.00;95822.03;1034570;28;20091;-72
2022/10/24 01:12:58;;;;;;;4.78;1.60;;;;;;;12.90;100.00;95819.66;1034191;28;20076;-73
2022/10/24 01:13:35;;;;;;;6.03;1.00;;;;;;;12.88;100.00;95813.91;1042336;28;20609;-73
2022/10/24 01:14:12;;;;;;;5.70;1.52;;;;;;;12.87;100.00;95812.31;1047027;28;20168;-73
2022/10/24 01:14:48;;;;;;;6.93;1.42;;;;;;;12.88;100.00;95806.00;1046958;28;20021;-73
2022/10/24 01:15:43;;;;;;;4.15;1.52;;;;;;;12.89;100.00;95802.31;1046975;28;20031;-74
2022/10/24 01:16:27;;;;;;;6.97;1.63;;;;;;;12.84;100.00;95778.63;1042797;28;20017;-73
2022/10/24 01:17:27;;;;;;;5.10;1.42;;;;;;;12.91;100.00;95788.84;1030614;28;20487;-73
2022/10/24 01:18:24;;;;;;;9.15;1.55;;;;;;;12.88;100.00;95790.22;1024279;28;20019;-71
2022/10/24 01:19:01;;;;;;;7.20;1.85;;;;;;;12.82;100.00;95770.25;1028561;28;20703;-72
2022/10/24 01:19:46;;;;;;;4.63;1.88;;;;;;;12.88;100.00;95789.44;1030608;28;20262;-73
2022/10/24 01:20:30;;;;;;;3.90;1.40;;;;;;;12.91;100.00;95792.28;1033627;28;20101;-73
2022/10/24 01:21:12;;;;;;;12.98;1.67;;;;;;;12.92;100.00;95796.50;1034393;28;20260;-72
2022/10/24 01:21:44;;;;;;;6.22;1.08;;;;;;;12.87;100.00;95785.97;1039192;28;20041;-73
2022/10/24 01:22:28;;;;;;;4.28;1.45;;;;;;;12.93;100.00;95802.53;1032529;28;20312;-71
2022/10/24 01:23:20;;;;;;;4.93;1.40;;;;;;;12.94;100.00;95804.91;1026854;28;20592;-71
2022/10/24 01:23:54;;;;;;;4.47;1.48;;;;;;;12.94;100.00;95804.09;1031567;28;20027;-71
2022/10/24 01:24:58;;;;;;;5.50;1.70;;;;;;;12.93;100.00;95805.94;1035144;28;20251;-70
2022/10/24 01:25:51;;;;;;;6.47;1.70;;;;;;;12.96;100.00;95802.00;1038554;28;20029;-72
2022/10/24 01:26:45;;;;;;;6.75;2.30;;;;;;;12.95;100.00;95810.97;1034582;28;20299;-72
2022/10/24 01:27:18;;;;;;;4.45;1.30;;;;;;;12.98;100.00;95813.84;1030942;28;20139;-70
2022/10/24 01:27:55;;;;;;;5.55;2.13;;;;;;;12.92;100.00;95809.66;1030745;28;20065;-72
2022/10/24 01:28:31;;;;;;;5.03;1.38;;;;;;;12.93;100.00;95811.22;1026506;28;20484;-71
2022/10/24 01:29:16;;;;;;;3.20;1.38;;;;;;;12.92;100.00;95812.28;1026525;28;20484;-72
2022/10/24 01:29:48;;;;;;;3.67;1.30;;;;;;;12.91;100.00;95818.63;1026715;28;20545;-73
2022/10/24 01:30:19;;;;;;;8.38;1.30;;;;;;;12.82;100.00;95801.06;1032132;28;20062;-72
2022/10/24 01:30:51;;;;;;;7.95;1.65;;;;;;;12.92;100.00;95825.47;1036606;28;20064;-71
2022/10/24 01:31:28;;;;;;;4.10;1.10;;;;;;;12.92;100.00;95820.19;1030543;28;20082;-73
2022/10/24 01:32:19;;;;;;;3.28;1.02;;;;;;;12.96;100.00;95813.31;1022564;29;20039;-70
2022/10/24 01:32:57;;;;;;;9.18;1.25;;;;;;;12.91;100.00;95805.47;1026391;28;20121;-72
2022/10/24 01:33:39;;;;;;;3.10;1.02;;;;;;;12.93;100.00;95805.94;1026401;28;20039;-73
2022/10/24 01:34:20;;;;;;;4.78;1.55;;;;;;;12.97;100.00;95816.72;1034485;28;20044;-72
2022/10/24 01:34:59;;;;;;;;;;;;;;;12.93;100.00;95813.84;1031070;28;20026;-74
2022/10/24 01:35:35;;;;;;;7.13;1.50;;;;;;;12.92;100.00;95807.03;1026285;28;19921;-73
2022/10/24 01:36:08;;;;;;;5.13;1.30;;;;;;;12.91;100.00;95816.00;1028957;28;20501;-72
2022/10/24 01:36:48;;;;;;;6.40;1.20;;;;;;;12.91;100.00;95800.19;1025117;28;20035;-75
2022/10/24 01:37:22;;;;;;;8.23;1.30;;;;;;;12.91;100.00;95808.09;1022471;29;20663;-73
2022/10/24 01:38:15;;;;;;;8.35;1.60;;;;;;;12.98;100.00;95800.66;1022487;28;20031;-72
2022/10/24 01:38:48;;;;;;;5.40;1.13;;;;;;;12.91;100.00;95789.66;1026564;28;20041;-73
2022/10/24 01:39:19;;;;;;;7.43;1.58;;;;;;;12.96;100.00;95802.78;1022211;28;20035;-72
2022/10/24 01:39:51;;;;;;;5.97;1.10;;;;;;;12.95;100.00;95798.56;1026455;28;20031;-73
2022/10/24 01:40:33;;;;;;;4.25;1.50;;;;;;;12.93;100.00;95808.59;1022592;29;20086;-72
2022/10/24 01:41:06;;;;;;;6.75;1.60;;;;;;;12.88;100.00;95805.22;1018470;29;20035;-71
2022/10/24 01:41:37;;;;;;;5.63;1.60;;;;;;;12.91;100.00;95810.72;1030249;28;20022;-72
2022/10/24 01:42:07;;;;;;;4.57;1.35;;;;;;;12.92;100.00;95801.75;1022598;29;20027;-74
2022/10/24 01:42:38;;;;;;;9.88;1.35;;;;;;;12.96;100.00;95802.78;1021788;28;20027;-73
2022/10/24 01:43:12;;;;;;;5.53;1.40;;;;;;;12.92;100.00;95790.44;1021975;29;20102;-71
2022/10/24 01:43:56;;;;;;;4.57;1.52;;;;;;;13.02;100.00;95794.84;1022573;29;20739;-72
2022/10/24 01:44:29;;;;;;;8.18;1.58;;;;;;;12.93;100.00;95792.00;1022497;28;20087;-72
2022/10/24 01:44:59;;;;;;;2.30;1.40;;;;;;;12.97;100.00;95799.06;1026578;28;20093;-72
2022/10/24 01:45:32;;;;;;;3.83;1.40;;;;;;;12.97;100.00;95801.69;1026473;28;20057;-70
2022/10/24 01:46:06;;;;;;;4.55;1.35;;;;;;;13.03;100.00;95801.69;1026428;28;20614;-73
2022/10/24 01:46:40;;;;;;;9.70;1.30;;;;;;;12.94;100.00;95791.75;1024295;28;20041;-72
2022/10/24 01:47:16;;;;;;;5.88;1.15;;;;;;;12.97;100.00;95798.28;1027837;28;20030;-73
2022/10/24 01:47:49;;;;;;;5.82;1.92;;;;;;;13.01;100.00;95801.97;1022319;28;20518;-73
2022/10/24 01:48:20;;;;;;;5.78;1.38;;;;;;;12.94;100.00;95785.66;1014593;29;20084;-73
2022/10/24 01:48:55;;;;;;;2.53;1.10;;;;;;;13.01;100.00;95798.53;1026562;28;20035;-72
2022/10/24 01:49:27;;;;;;;4.53;1.67;;;;;;;12.96;100.00;95792.25;1034395;28;20510;-73
2022/10/24 01:50:00;;;;;;;8.13;1.23;;;;;;;13.01;100.00;95795.88;1034584;28;20130;-73
2022/10/24 01:50:31;;;;;;;4.55;1.42;;;;;;;12.96;100.00;95792.25;1030374;28;20562;-72
2022/10/24 01:51:01;;;;;;;7.68;2.17;;;;;;;12.96;100.00;95794.88;1026236;28;20081;-72
2022/10/24 01:51:31;;;;;;;5.25;1.20;;;;;;;12.94;100.00;95791.75;1026371;28;20037;-73
2022/10/24 01:52:04;;;;;;;3.35;1.40;;;;;;;12.97;100.00;95801.69;1026440;28;20030;-73
2022/10/24 01:52:36;;;;;;;4.15;1.33;;;;;;;12.93;100.00;95787.50;1029722;28;20428;-73
2022/10/24 01:53:06;;;;;;;2.60;0.80;;;;;;;12.97;100.00;95793.00;1025059;28;20039;-72
2022/10/24 01:53:37;;;;;;;9.43;2.13;;;;;;;12.93;100.00;95786.72;1026292;28;20031;-72
2022/10/24 01:54:08;;;;;;;6.70;1.30;;;;;;;12.96;100.00;95786.97;1026391;28;20027;-72
2022/10/24 01:54:38;;;;;;;4.78;1.30;;;;;;;12.90;100.00;95777.53;1024267;28;20034;-73
2022/10/24 01:55:09;;;;;;;9.10;1.23;;;;;;;12.95;100.00;95782.78;1034531;28;20674;-72
2022/10/24 01:55:39;;;;;;;5.63;0.93;;;;;;;12.96;100.00;95784.34;1030462;28;20451;-72
2022/10/24 01:56:10;;;;;;;4.18;1.02;;;;;;;12.91;100.00;95773.84;1026743;28;20037;-73
2022/10/24 01:56:40;;;;;;;9.00;1.52;;;;;;;12.98;100.00;95784.84;1026422;28;20022;-71
2022/10/24 01:57:12;;;;;;;9.65;2.05;;;;;;;13.01;100.00;95782.72;1026543;28;20566;-72
2022/10/24 01:57:42;;;;;;;6.38;1.27;;;;;;;13.04;100.00;95779.53;1030835;28;20084;-73
2022/10/24 01:58:13;;;;;;;9.80;1.15;;;;;;;12.96;100.00;95773.81;1034262;28;20033;-72
2022/10/24 01:58:44;;;;;;;4.55;1.20;;;;;;;13.02;100.00;95779.03;1030520;28;20030;-74
2022/10/24 01:59:29;;;;;;;6.40;1.00;;;;;;;13.02;100.00;95773.78;1026402;28;20532;-73
2022/10/24 02:00:00;;;;;;;10.23;1.55;;;;;;;12.95;100.00;95763.56;1024500;28;20019;-73
2022/10/24 02:00:30;;;;;;;6.80;1.40;;;;;;;13.02;100.00;95776.41;1020398;29;20592;-72
2022/10/24 02:01:04;;;;;;;7.45;1.98;;;;;;;12.99;100.00;95780.38;1020814;29;20068;-73
2022/10/24 02:01:35;;;;;;;7.93;1.50;;;;;;;12.97;100.00;95778.00;1018327;29;20030;-74
2022/10/24 02:02:11;;;;;;;2.85;0.90;;;;;;;13.01;100.00;95777.44;1018533;29;20572;-73
2022/10/24 02:02:42;;;;;;;5.40;1.50;;;;;;;13.02;100.00;95774.56;1025805;28;20037;-72
2022/10/24 02:03:26;;;;;;;3.88;1.05;;;;;;;13.02;100.00;95779.81;1022195;28;20042;-72
2022/10/24 02:03:57;;;;;;;5.93;1.23;;;;;;;13.02;100.00;95779.03;1022492;29;20027;-72
2022/10/24 02:04:28;;;;;;;4.95;1.23;;;;;;;12.98;100.00;95784.84;1024166;28;20038;-74
2022/10/24 02:05:23;;;;;;;3.85;0.88;;;;;;;12.97;100.00;95778.00;1024563;28;20771;-72
2022/10/24 02:05:56;;;;;;;4.80;1.52;;;;;;;12.96;100.00;95775.66;1033950;28;20046;-71
2022/10/24 02:06:32;;;;;;;5.88;1.10;;;;;;;13.00;100.00;95776.66;1034268;28;20030;-73
2022/10/24 02:07:03;;;;;;;6.20;1.20;;;;;;;13.01;100.00;95780.06;1026555;28;20023;-72
2022/10/24 02:07:33;;;;;;;9.85;1.83;;;;;;;13.01;100.00;95769.53;1026371;28;20026;-72
2022/10/24 02:08:06;;;;;;;5.85;1.15;;;;;;;13.03;100.00;95777.97;1027405;28;20744;-72
2022/10/24 02:08:39;;;;;;;5.32;1.15;;;;;;;13.02;100.00;95781.66;1034363;28;20071;-72
2022/10/24 02:09:13;;;;;;;5.00;1.13;;;;;;;12.96;100.00;95780.91;1035201;28;20026;-73
2022/10/24 02:09:43;;;;;;;7.10;1.52;;;;;;;12.93;100.00;95774.34;1035590;28;20018;-72
2022/10/24 02:10:18;;;;;;;9.20;1.42;;;;;;;13.00;100.00;95776.66;1031313;28;20026;-72
2022/10/24 02:10:54;;;;;;;11.52;2.28;;;;;;;12.96;100.00;95784.34;1034377;28;20069;-72
2022/10/24 02:11:25;;;;;;;3.88;1.50;;;;;;;12.98;100.00;95779.59;1030345;28;20018;-72
2022/10/24 02:11:55;;;;;;;5.25;1.30;;;;;;;12.96;100.00;95771.16;1030383;28;20434;-73
2022/10/24 02:12:26;;;;;;;11.13;2.47;;;;;;;12.93;100.00;95771.72;1025730;28;20022;-74
2022/10/24 02:13:00;;;;;;;4.93;1.45;;;;;;;13.00;100.00;95771.41;1026408;28;20033;-72
2022/10/24 02:13:35;;;;;;;3.05;1.33;;;;;;;12.97;100.00;95756.94;1018853;29;20028;-72
2022/10/24 02:14:25;;;;;;;3.22;0.82;;;;;;;12.92;100.00;95754.34;1022577;29;20110;-72
2022/10/24 02:15:02;;;;;;;3.50;1.02;;;;;;;12.96;100.00;95758.00;1018283;29;20065;-72
2022/10/24 02:15:35;;;;;;;2.55;0.70;;;;;;;12.95;100.00;95753.00;1018441;29;20481;-71
2022/10/24 02:16:06;;;;;;;4.68;1.00;;;;;;;12.96;100.00;95750.09;1018465;29;20020;-72
2022/10/24 02:16:36;;;;;;;4.97;1.30;;;;;;;12.95;100.00;95753.81;1022212;29;20028;-75
2022/10/24 02:17:06;;;;;;;5.65;1.60;;;;;;;12.90;100.00;95740.66;1022313;29;20027;-73
2022/10/24 02:17:37;;;;;;;6.68;1.52;;;;;;;12.97;100.00;95748.25;1030753;28;20516;-72
2022/10/24 02:18:07;;;;;;;5.82;1.70;;;;;;;12.96;100.00;95744.81;1030307;28;20033;-71
2022/10/24 02:18:38;;;;;;;7.45;1.48;;;;;;;12.96;100.00;95739.56;1030212;28;20022;-72
2022/10/24 02:19:08;;;;;;;5.72;0.77;;;;;;;12.97;100.00;95746.38;1030079;28;20026;-71
2022/10/24 02:19:39;;;;;;;3.45;1.48;;;;;;;12.91;100.00;95739.63;1034378;28;20033;-73
2022/10/24 02:20:10;;;;;;;5.75;1.20;;;;;;;12.93;100.00;95744.59;1034180;28;20040;-74
2022/10/24 02:20:45;;;;;;;3.35;1.60;;;;;;;13.00;100.00;95754.81;1026501;28;20484;-74
2022/10/24 02:21:45;;;;;;;7.43;1.27;;;;;;;13.02;100.00;95755.34;1018381;29;20910;-73
2022/10/24 02:22:35;;;;;;;5.82;1.48;;;;;;;12.97;100.00;95756.13;1031008;28;20034;-71
2022/10/24 02:23:29;;;;;;;4.50;1.30;;;;;;;12.99;100.00;95754.03;1037989;28;20021;-72
2022/10/24 02:24:01;;;;;;;4.68;1.33;;;;;;;13.01;100.00;95754.56;1032569;28;20025;-72
2022/10/24 02:24:35;;;;;;;6.13;1.08;;;;;;;13.00;100.00;95755.59;1034293;28;20022;-72
2022/10/24 02:25:38;;;;;;;7.15;1.08;;;;;;;12.95;100.00;95745.91;1035063;28;20041;-71
2022/10/24 02:26:17;;;;;;;4.35;1.33;;;;;;;12.98;100.00;95747.97;1016839;29;20416;-72
2022/10/24 02:26:55;;;;;;;7.97;0.90;;;;;;;12.91;100.00;95741.44;1019343;28;20134;-72
2022/10/24 02:27:51;;;;;;;5.28;1.20;;;;;;;13.01;100.00;95753.75;1028619;28;20660;-71
2022/10/24 02:28:22;;;;;;;2.80;0.80;;;;;;;13.00;100.00;95760.84;1033168;28;20057;-71
2022/10/24 02:28:52;;;;;;;3.75;1.40;;;;;;;12.93;100.00;95755.13;1037577;28;20088;-72
2022/10/24 02:29:26;;;;;;;6.82;1.33;;;;;;;12.98;100.00;95763.00;1029726;28;20041;-74
2022/10/24 02:29:58;;;;;;;3.75;1.40;;;;;;;12.95;100.00;95750.38;1021955;29;20035;-73
2022/10/24 02:30:28;;;;;;;5.88;1.30;;;;;;;12.92;100.00;95749.09;1025621;28;20086;-70
2022/10/24 02:31:01;;;;;;;6.55;1.35;;;;;;;12.95;100.00;95753.81;1029777;28;20670;-72
2022/10/24 02:31:35;;;;;;;3.92;0.95;;;;;;;12.91;100.00;95758.06;1029977;28;20067;-70
2022/10/24 02:32:07;;;;;;;5.63;1.30;;;;;;;12.93;100.00;95755.91;1030068;28;20515;-71
2022/10/24 02:32:39;;;;;;;8.32;1.50;;;;;;;12.87;100.00;95751.75;1028906;28;20094;-73
2022/10/24 02:33:10;;;;;;;3.67;1.00;;;;;;;12.94;100.00;95746.97;1026055;28;20101;-73
2022/10/24 02:33:40;;;;;;;6.55;1.67;;;;;;;12.94;100.00;95764.59;1021558;28;20019;-71
2022/10/24 02:34:10;;;;;;;3.97;1.08;;;;;;;12.94;100.00;95760.13;1026883;28;20046;-71
2022/10/24 02:34:41;;;;;;;4.82;1.23;;;;;;;12.95;100.00;95764.34;1025727;28;20023;-72
2022/10/24 02:35:13;;;;;;;4.47;1.50;;;;;;;12.97;100.00;95756.13;1033858;28;20587;-71
2022/10/24 02:35:43;;;;;;;3.70;1.17;;;;;;;12.77;100.00;95741.28;1025812;28;20023;-72
2022/10/24 02:36:16;;;;;;;7.00;0.90;;;;;;;12.97;100.00;95764.81;1029770;28;20058;-73
2022/10/24 02:36:47;;;;;;;2.72;1.00;;;;;;;12.97;100.00;95766.69;1017816;29;20382;-70
2022/10/24 02:37:17;;;;;;;5.35;1.60;;;;;;;12.93;100.00;95755.91;1017943;29;20103;-71
2022/10/24 02:37:53;;;;;;;3.42;1.00;;;;;;;13.00;100.00;95765.34;1025488;28;20052;-72
2022/10/24 02:38:26;;;;;;;1.83;0.88;;;;;;;13.03;100.00;95770.84;1034031;28;20599;-72
2022/10/24 02:38:57;;;;;;;5.55;1.35;;;;;;;13.01;100.00;95762.44;1030070;28;20030;-71
2022/10/24 02:39:27;;;;;;;2.70;0.70;;;;;;;13.01;100.00;95762.44;1022066;28;20085;-72
2022/10/24 02:39:58;;;;;;;1.52;0.85;;;;;;;13.08;100.00;95775.31;1026073;28;20022;-72
2022/10/24 02:40:28;;;;;;;5.45;1.00;;;;;;;13.02;100.00;95769.28;1030086;28;20034;-73
2022/10/24 02:41:00;;;;;;;2.58;0.82;;;;;;;13.07;100.00;95765.81;1029889;28;20026;-73